Time,TemperatureF,DewpointF,PressureIn,WindDirection,WindDirectionDegrees,WindSpeedMPH,WindSpeedGustMPH,Humidity,HourlyPrecipIn,Conditions,Clouds,dailyrainin,SoftwareType,DateUTC
2013-08-01 00:01:00,72.3,69.5,30.08,East,90,1.0,1.0,91,0.11,-RA,OVC,0.00,WeatherDisplay:10.37,2013-08-01 04:01:00,
2013-08-01 00:02:00,72.4,69.6,30.08,East,100,1.1,1.1,91,0.11,CLR,OVC,0.01,WeatherDisplay:10.37,2013-08-01 04:02:00,
2013-08-01 00:07:00,72.5,69.7,30.08,SE,127,1.1,1.1,91,0.11,CLR,OVC,0.01,WeatherDisplay:10.37,2013-08-01 04:07:00,
2013-08-01 00:12:00,72.4,69.6,30.07,SE,135,2.3,2.3,91,0.10,CLR,OVC,0.01,WeatherDisplay:10.37,2013-08-01 04:12:00,
2013-08-01 00:17:00,72.3,69.5,30.07,SE,127,3.4,3.4,91,0.09,CLR,OVC,0.01,WeatherDisplay:10.37,2013-08-01 04:17:00,
2013-08-01 00:22:00,72.3,69.5,30.07,SSE,161,4.6,4.6,91,0.08,CLR,OVC,0.01,WeatherDisplay:10.37,2013-08-01 04:22:00,
2013-08-01 00:27:00,72.2,69.4,30.06,ENE,67,2.3,2.3,91,0.07,CLR,OVC,0.01,WeatherDisplay:10.37,2013-08-01 04:27:00,
2013-08-01 00:32:00,72.2,69.4,30.06,SSE,159,2.3,2.3,91,0.06,CLR,OVC,0.01,WeatherDisplay:10.37,2013-08-01 04:32:00,
2013-08-01 00:37:00,72.1,69.3,30.06,SE,137,3.4,3.4,91,0.04,CLR,OVC,0.01,WeatherDisplay:10.37,2013-08-01 04:37:00,
2013-08-01 00:42:00,72.2,69.4,30.06,SE,141,2.3,2.3,91,0.03,CLR,OVC,0.01,WeatherDisplay:10.37,2013-08-01 04:42:00,
2013-08-01 00:47:00,72.2,69.4,30.06,SSE,153,1.1,0.0,91,0.03,CLR,OVC,0.01,WeatherDisplay:10.37,2013-08-01 04:47:00,
2013-08-01 00:52:00,72.2,69.4,30.06,SSE,154,1.1,0.0,91,0.02,CLR,OVC,0.01,WeatherDisplay:10.37,2013-08-01 04:52:00,
2013-08-01 00:57:00,72.2,69.4,30.06,SSE,153,0.0,0.0,91,0.01,CLR,OVC,0.01,WeatherDisplay:10.37,2013-08-01 04:57:00,
2013-08-01 01:02:00,72.2,69.4,30.06,SSE,154,1.1,0.0,91,0.00,CLR,OVC,0.01,WeatherDisplay:10.37,2013-08-01 05:02:00,
2013-08-01 01:07:00,72.2,69.4,30.05,SE,128,2.3,2.3,91,0.00,CLR,OVC,0.01,WeatherDisplay:10.37,2013-08-01 05:07:00,
2013-08-01 01:12:00,72.2,69.4,30.05,SSE,151,2.3,2.3,91,0.00,CLR,OVC,0.01,WeatherDisplay:10.37,2013-08-01 05:12:00,
2013-08-01 01:17:00,72.2,69.4,30.05,SSE,151,0.0,0.0,91,0.00,CLR,OVC,0.01,WeatherDisplay:10.37,2013-08-01 05:17:00,
2013-08-01 01:22:00,72.1,69.3,30.04,SSE,151,0.0,0.0,91,0.00,CLR,OVC,0.01,WeatherDisplay:10.37,2013-08-01 05:22:00,
2013-08-01 01:27:00,72.0,69.2,30.05,SSE,151,0.0,0.0,91,0.00,CLR,OVC,0.01,WeatherDisplay:10.37,2013-08-01 05:27:00,
2013-08-01 01:32:00,72.0,69.2,30.04,SSE,151,1.1,0.0,91,0.00,CLR,OVC,0.01,WeatherDisplay:10.37,2013-08-01 05:32:00,
2013-08-01 01:37:00,71.9,69.1,30.04,SSE,151,0.0,0.0,91,0.00,CLR,OVC,0.01,WeatherDisplay:10.37,2013-08-01 05:37:00,
2013-08-01 01:42:00,71.8,69.0,30.04,SSE,151,0.0,0.0,91,0.00,CLR,OVC,0.01,WeatherDisplay:10.37,2013-08-01 05:42:00,
2013-08-01 01:47:00,71.7,68.9,30.04,SSE,151,0.0,0.0,91,0.00,CLR,OVC,0.01,WeatherDisplay:10.37,2013-08-01 05:47:00,
2013-08-01 01:52:00,71.7,68.9,30.03,SSE,151,0.0,0.0,91,0.00,CLR,OVC,0.01,WeatherDisplay:10.37,2013-08-01 05:52:00,
2013-08-01 01:57:00,71.6,68.8,30.03,SSE,151,0.0,0.0,91,0.00,CLR,OVC,0.01,WeatherDisplay:10.37,2013-08-01 05:57:00,
2013-08-01 02:02:00,71.6,68.8,30.03,SSE,151,0.0,0.0,91,0.00,CLR,OVC,0.01,WeatherDisplay:10.37,2013-08-01 06:02:00,
2013-08-01 02:07:00,71.5,68.7,30.03,SSE,151,1.0,1.0,91,0.00,CLR,OVC,0.01,WeatherDisplay:10.37,2013-08-01 06:07:00,
2013-08-01 02:12:00,71.5,68.7,30.03,SSE,151,0.0,0.0,91,0.00,CLR,OVC,0.01,WeatherDisplay:10.37,2013-08-01 06:12:00,
2013-08-01 02:17:00,71.4,68.6,30.02,SE,124,0.0,0.0,91,0.00,CLR,OVC,0.01,WeatherDisplay:10.37,2013-08-01 06:17:00,
2013-08-01 02:22:00,71.4,69.0,30.02,SE,124,0.0,0.0,92,0.00,CLR,OVC,0.01,WeatherDisplay:10.37,2013-08-01 06:22:00,
2013-08-01 02:27:00,71.4,69.0,30.02,SE,124,0.0,0.0,92,0.00,CLR,OVC,0.01,WeatherDisplay:10.37,2013-08-01 06:27:00,
2013-08-01 02:32:00,71.3,68.9,30.02,SE,124,1.1,0.0,92,0.00,CLR,OVC,0.01,WeatherDisplay:10.37,2013-08-01 06:32:00,
2013-08-01 02:37:00,71.3,68.9,30.02,SE,124,0.0,0.0,92,0.00,CLR,OVC,0.01,WeatherDisplay:10.37,2013-08-01 06:37:00,
2013-08-01 02:42:00,71.2,68.8,30.02,SE,124,0.0,0.0,92,0.00,CLR,OVC,0.01,WeatherDisplay:10.37,2013-08-01 06:42:00,
2013-08-01 02:47:00,71.3,68.9,30.02,SE,124,0.0,0.0,92,0.00,CLR,OVC,0.01,WeatherDisplay:10.37,2013-08-01 06:47:00,
2013-08-01 02:52:00,71.4,69.0,30.02,SE,124,0.0,0.0,92,0.00,CLR,OVC,0.01,WeatherDisplay:10.37,2013-08-01 06:52:00,
2013-08-01 02:54:00,71.4,69.0,30.01,SE,124,0.0,0.0,92,0.00,CLR,OVC,0.01,WeatherDisplay:10.37,2013-08-01 06:54:00,
2013-08-01 02:57:00,71.4,69.0,30.01,SE,124,0.0,0.0,92,0.00,CLR,OVC,0.01,WeatherDisplay:10.37,2013-08-01 06:57:00,
2013-08-01 03:02:00,71.4,69.0,30.01,SE,124,0.0,0.0,92,0.00,CLR,OVC,0.01,WeatherDisplay:10.37,2013-08-01 07:02:00,
2013-08-01 03:08:00,71.6,69.2,30.01,SE,124,1.0,0.0,92,0.00,CLR,OVC,0.01,WeatherDisplay:10.37,2013-08-01 07:08:00,
2013-08-01 03:13:00,71.6,69.2,30.01,SE,124,0.0,0.0,92,0.00,CLR,OVC,0.01,WeatherDisplay:10.37,2013-08-01 07:13:00,
2013-08-01 03:18:00,71.6,69.2,30.01,ESE,123,0.0,0.0,92,0.00,CLR,OVC,0.01,WeatherDisplay:10.37,2013-08-01 07:18:00,
2013-08-01 03:23:00,71.5,69.1,30.01,SE,124,0.0,0.0,92,0.00,CLR,OVC,0.01,WeatherDisplay:10.37,2013-08-01 07:23:00,
2013-08-01 03:28:00,71.5,69.1,30.01,ESE,123,0.0,0.0,92,0.00,CLR,OVC,0.01,WeatherDisplay:10.37,2013-08-01 07:28:00,
2013-08-01 03:33:00,71.5,69.1,30.01,SE,124,0.0,0.0,92,0.00,CLR,OVC,0.01,WeatherDisplay:10.37,2013-08-01 07:33:00,
2013-08-01 03:38:00,71.6,69.2,30.01,SE,124,0.0,0.0,92,0.00,CLR,OVC,0.01,WeatherDisplay:10.37,2013-08-01 07:38:00,
2013-08-01 03:43:00,71.6,69.2,30.00,SE,124,0.0,0.0,92,0.00,CLR,OVC,0.01,WeatherDisplay:10.37,2013-08-01 07:43:00,
2013-08-01 03:48:00,71.7,69.3,30.00,ESE,123,0.0,0.0,92,0.00,CLR,OVC,0.01,WeatherDisplay:10.37,2013-08-01 07:48:00,
2013-08-01 03:53:00,71.7,69.3,30.00,ESE,123,0.0,0.0,92,0.00,CLR,OVC,0.01,WeatherDisplay:10.37,2013-08-01 07:53:00,
2013-08-01 03:58:00,71.7,69.3,30.00,ESE,123,0.0,0.0,92,0.00,CLR,OVC,0.01,WeatherDisplay:10.37,2013-08-01 07:58:00,
2013-08-01 04:03:00,71.7,69.3,30.00,SE,124,0.0,0.0,92,0.00,CLR,OVC,0.01,WeatherDisplay:10.37,2013-08-01 08:03:00,
2013-08-01 04:08:00,71.6,69.2,30.00,SE,124,0.0,0.0,92,0.00,CLR,OVC,0.01,WeatherDisplay:10.37,2013-08-01 08:08:00,
2013-08-01 04:13:00,71.5,69.1,30.00,SE,124,0.0,0.0,92,0.00,CLR,OVC,0.01,WeatherDisplay:10.37,2013-08-01 08:13:00,
2013-08-01 04:18:00,71.5,69.1,30.00,SE,124,0.0,0.0,92,0.00,CLR,OVC,0.01,WeatherDisplay:10.37,2013-08-01 08:18:00,
2013-08-01 04:23:00,71.5,69.1,30.00,ESE,123,0.0,0.0,92,0.00,CLR,OVC,0.01,WeatherDisplay:10.37,2013-08-01 08:23:00,
2013-08-01 04:28:00,71.5,69.1,30.00,ESE,123,0.0,0.0,92,0.00,CLR,OVC,0.01,WeatherDisplay:10.37,2013-08-01 08:28:00,
2013-08-01 04:33:00,71.5,69.1,30.00,ESE,123,0.0,0.0,92,0.00,CLR,OVC,0.01,WeatherDisplay:10.37,2013-08-01 08:33:00,
2013-08-01 04:38:00,71.4,69.0,30.00,SE,124,0.0,0.0,92,0.00,CLR,OVC,0.01,WeatherDisplay:10.37,2013-08-01 08:38:00,
2013-08-01 04:43:00,71.3,68.9,30.00,ESE,123,0.0,0.0,92,0.00,CLR,OVC,0.01,WeatherDisplay:10.37,2013-08-01 08:43:00,
2013-08-01 04:48:00,71.3,68.9,30.00,ESE,123,0.0,0.0,92,0.00,CLR,OVC,0.01,WeatherDisplay:10.37,2013-08-01 08:48:00,
2013-08-01 04:53:00,71.3,68.9,30.00,ESE,123,0.0,0.0,92,0.00,CLR,OVC,0.01,WeatherDisplay:10.37,2013-08-01 08:53:00,
2013-08-01 04:58:00,71.5,69.4,30.00,SE,124,1.1,1.1,93,0.00,CLR,OVC,0.01,WeatherDisplay:10.37,2013-08-01 08:58:00,
2013-08-01 05:03:00,71.5,69.4,30.00,SE,124,1.1,1.1,93,0.00,CLR,OVC,0.01,WeatherDisplay:10.37,2013-08-01 09:03:00,
2013-08-01 05:08:00,71.4,69.3,30.00,ESE,123,1.1,1.1,93,0.00,CLR,OVC,0.01,WeatherDisplay:10.37,2013-08-01 09:08:00,
2013-08-01 05:13:00,71.4,69.3,30.00,SE,130,2.3,2.3,93,0.00,CLR,OVC,0.01,WeatherDisplay:10.37,2013-08-01 09:13:00,
2013-08-01 05:18:00,71.5,69.4,30.00,SE,130,1.1,1.1,93,0.00,CLR,OVC,0.01,WeatherDisplay:10.37,2013-08-01 09:18:00,
2013-08-01 05:23:00,71.5,69.4,30.00,SE,130,0.0,0.0,93,0.00,CLR,OVC,0.01,WeatherDisplay:10.37,2013-08-01 09:23:00,
2013-08-01 05:28:00,71.4,69.3,30.01,SE,130,0.0,0.0,93,0.00,CLR,OVC,0.01,WeatherDisplay:10.37,2013-08-01 09:28:00,
2013-08-01 05:33:00,71.4,69.3,30.01,SE,130,0.0,0.0,93,0.00,CLR,OVC,0.01,WeatherDisplay:10.37,2013-08-01 09:33:00,
2013-08-01 05:38:00,71.4,69.3,30.00,SE,130,0.0,0.0,93,0.00,CLR,OVC,0.01,WeatherDisplay:10.37,2013-08-01 09:38:00,
2013-08-01 05:43:00,71.4,69.3,30.00,SE,130,0.0,0.0,93,0.00,CLR,OVC,0.01,WeatherDisplay:10.37,2013-08-01 09:43:00,
2013-08-01 05:48:00,71.6,69.5,30.00,SE,130,0.0,0.0,93,0.00,CLR,OVC,0.01,WeatherDisplay:10.37,2013-08-01 09:48:00,
2013-08-01 05:53:00,71.7,69.6,30.01,SE,130,0.0,0.0,93,0.00,CLR,OVC,0.01,WeatherDisplay:10.37,2013-08-01 09:53:00,
2013-08-01 05:58:00,71.7,69.6,30.01,SE,129,0.0,0.0,93,0.00,CLR,OVC,0.01,WeatherDisplay:10.37,2013-08-01 09:58:00,
2013-08-01 06:03:00,71.9,69.8,30.01,SE,129,0.0,0.0,93,0.00,CLR,OVC,0.01,WeatherDisplay:10.37,2013-08-01 10:03:00,
2013-08-01 06:08:00,71.8,69.7,30.01,SE,130,0.0,0.0,93,0.00,CLR,OVC,0.01,WeatherDisplay:10.37,2013-08-01 10:08:00,
2013-08-01 06:13:00,72.0,69.9,30.01,SE,129,0.0,0.0,93,0.00,CLR,OVC,0.01,WeatherDisplay:10.37,2013-08-01 10:13:00,
2013-08-01 06:18:00,72.0,69.9,30.01,SE,130,0.0,0.0,93,0.00,CLR,OVC,0.01,WeatherDisplay:10.37,2013-08-01 10:18:00,
2013-08-01 06:23:00,72.0,69.9,30.02,SE,130,0.0,0.0,93,0.00,CLR,OVC,0.01,WeatherDisplay:10.37,2013-08-01 10:23:00,
2013-08-01 06:28:00,71.9,69.8,30.02,SE,130,0.0,0.0,93,0.00,CLR,OVC,0.01,WeatherDisplay:10.37,2013-08-01 10:28:00,
2013-08-01 06:33:00,72.0,69.9,30.02,SE,129,0.0,0.0,93,0.00,CLR,OVC,0.01,WeatherDisplay:10.37,2013-08-01 10:33:00,
2013-08-01 06:38:00,72.1,70.0,30.02,SE,130,0.0,0.0,93,0.00,CLR,OVC,0.01,WeatherDisplay:10.37,2013-08-01 10:38:00,
2013-08-01 06:39:00,72.2,70.1,30.02,SE,130,0.0,0.0,93,0.00,CLR,OVC,0.01,WeatherDisplay:10.37,2013-08-01 10:39:00,
2013-08-01 06:43:00,72.2,70.1,30.02,SE,130,0.0,0.0,93,0.00,CLR,OVC,0.01,WeatherDisplay:10.37,2013-08-01 10:43:00,
2013-08-01 06:48:00,72.2,70.1,30.02,SE,130,0.0,0.0,93,0.00,CLR,OVC,0.01,WeatherDisplay:10.37,2013-08-01 10:48:00,
2013-08-01 06:58:00,72.2,70.1,30.02,ESE,123,0.0,0.0,93,0.00,CLR,OVC,0.01,WeatherDisplay:10.37,2013-08-01 10:58:00,
2013-08-01 07:03:00,72.2,70.1,30.02,ESE,123,0.0,0.0,93,0.00,CLR,OVC,0.01,WeatherDisplay:10.37,2013-08-01 11:03:00,
2013-08-01 07:08:00,72.2,70.1,30.02,SE,124,0.0,0.0,93,0.00,CLR,OVC,0.01,WeatherDisplay:10.37,2013-08-01 11:08:00,
2013-08-01 07:13:00,72.2,70.1,30.03,ESE,121,0.0,0.0,93,0.00,CLR,OVC,0.01,WeatherDisplay:10.37,2013-08-01 11:13:00,
2013-08-01 07:18:00,72.3,70.2,30.03,ESE,114,0.0,0.0,93,0.00,CLR,OVC,0.01,WeatherDisplay:10.37,2013-08-01 11:18:00,
2013-08-01 07:23:00,72.3,70.2,30.03,ESE,116,0.0,0.0,93,0.00,CLR,OVC,0.01,WeatherDisplay:10.37,2013-08-01 11:23:00,
2013-08-01 07:28:00,72.4,70.3,30.03,ESE,113,1.1,0.0,93,0.00,CLR,OVC,0.01,WeatherDisplay:10.37,2013-08-01 11:28:00,
2013-08-01 07:33:00,72.6,70.5,30.03,ESE,112,1.1,1.1,93,0.00,CLR,OVC,0.01,WeatherDisplay:10.37,2013-08-01 11:33:00,
2013-08-01 07:38:00,72.8,70.7,30.03,SE,124,1.1,0.0,93,0.00,CLR,OVC,0.01,WeatherDisplay:10.37,2013-08-01 11:38:00,
2013-08-01 07:43:00,73.1,71.0,30.03,ESE,120,0.0,0.0,93,0.00,CLR,OVC,0.01,WeatherDisplay:10.37,2013-08-01 11:43:00,
2013-08-01 07:48:00,73.4,71.3,30.03,ESE,120,0.0,0.0,93,0.00,CLR,OVC,0.01,WeatherDisplay:10.37,2013-08-01 11:48:00,
2013-08-01 07:53:00,73.7,71.5,30.03,ESE,120,1.0,0.0,93,0.00,CLR,OVC,0.01,WeatherDisplay:10.37,2013-08-01 11:53:00,
2013-08-01 07:58:00,73.8,71.6,30.03,ESE,123,1.1,0.0,93,0.00,CLR,OVC,0.01,WeatherDisplay:10.37,2013-08-01 11:58:00,
2013-08-01 08:03:00,74.0,71.8,30.03,ESE,121,1.1,0.0,93,0.00,CLR,OVC,0.01,WeatherDisplay:10.37,2013-08-01 12:03:00,
2013-08-01 08:08:00,74.1,71.9,30.03,ESE,121,0.0,0.0,93,0.00,CLR,OVC,0.01,WeatherDisplay:10.37,2013-08-01 12:08:00,
2013-08-01 08:13:00,74.3,72.1,30.03,ESE,121,1.1,1.1,93,0.00,CLR,OVC,0.01,WeatherDisplay:10.37,2013-08-01 12:13:00,
2013-08-01 08:18:00,74.6,72.4,30.03,ESE,121,1.1,1.1,93,0.00,CLR,OVC,0.01,WeatherDisplay:10.37,2013-08-01 12:18:00,
2013-08-01 08:23:00,74.9,72.7,30.04,ESE,121,1.1,0.0,93,0.00,CLR,OVC,0.01,WeatherDisplay:10.37,2013-08-01 12:23:00,
2013-08-01 08:28:00,75.0,72.8,30.04,ESE,120,0.0,0.0,93,0.00,CLR,OVC,0.01,WeatherDisplay:10.37,2013-08-01 12:28:00,
2013-08-01 08:33:00,75.2,73.0,30.04,ESE,103,0.0,0.0,93,0.00,CLR,OVC,0.01,WeatherDisplay:10.37,2013-08-01 12:33:00,
2013-08-01 08:38:00,75.5,73.3,30.04,ESE,103,0.0,0.0,93,0.00,CLR,OVC,0.01,WeatherDisplay:10.37,2013-08-01 12:38:00,
2013-08-01 08:43:00,75.7,73.5,30.04,East,99,0.0,0.0,93,0.00,CLR,OVC,0.01,WeatherDisplay:10.37,2013-08-01 12:43:00,
2013-08-01 08:49:00,75.8,73.6,30.04,ESE,102,0.0,0.0,93,0.00,CLR,OVC,0.01,WeatherDisplay:10.37,2013-08-01 12:49:00,
2013-08-01 08:54:00,75.9,73.7,30.04,ESE,117,1.0,1.0,93,0.00,CLR,OVC,0.01,WeatherDisplay:10.37,2013-08-01 12:54:00,
2013-08-01 08:59:00,76.1,73.9,30.04,ESE,118,1.1,0.0,93,0.00,CLR,OVC,0.01,WeatherDisplay:10.37,2013-08-01 12:59:00,
2013-08-01 09:04:00,76.4,74.2,30.04,ESE,120,1.1,0.0,93,0.00,CLR,OVC,0.01,WeatherDisplay:10.37,2013-08-01 13:04:00,
2013-08-01 09:09:00,76.7,74.5,30.04,ESE,119,1.1,0.0,93,0.00,CLR,OVC,0.01,WeatherDisplay:10.37,2013-08-01 13:09:00,
2013-08-01 09:14:00,77.0,74.8,30.04,SE,128,1.1,1.1,93,0.00,CLR,OVC,0.01,WeatherDisplay:10.37,2013-08-01 13:14:00,
2013-08-01 09:19:00,77.2,74.7,30.05,SE,128,0.0,0.0,92,0.00,CLR,OVC,0.01,WeatherDisplay:10.37,2013-08-01 13:19:00,
2013-08-01 09:24:00,77.6,75.1,30.05,SE,127,0.0,0.0,92,0.00,CLR,OVC,0.01,WeatherDisplay:10.37,2013-08-01 13:24:00,
2013-08-01 09:29:00,77.9,75.4,30.05,SE,128,1.0,1.0,92,0.00,CLR,OVC,0.01,WeatherDisplay:10.37,2013-08-01 13:29:00,
2013-08-01 09:34:00,78.2,75.4,30.04,SE,141,1.1,0.0,91,0.00,CLR,OVC,0.01,WeatherDisplay:10.37,2013-08-01 13:34:00,
2013-08-01 09:39:00,78.7,75.8,30.05,SSE,147,2.0,2.0,91,0.00,CLR,OVC,0.01,WeatherDisplay:10.37,2013-08-01 13:39:00,
2013-08-01 09:44:00,78.9,75.7,30.04,SE,135,2.3,2.3,90,0.00,CLR,OVC,0.01,WeatherDisplay:10.37,2013-08-01 13:44:00,
2013-08-01 09:49:00,79.4,76.2,30.04,SSE,161,1.0,1.0,90,0.00,CLR,OVC,0.01,WeatherDisplay:10.37,2013-08-01 13:49:00,
2013-08-01 09:54:00,79.7,76.5,30.04,SE,141,2.3,2.3,90,0.00,CLR,OVC,0.01,WeatherDisplay:10.37,2013-08-01 13:54:00,
2013-08-01 09:59:00,79.9,76.4,30.05,SE,138,2.3,2.3,89,0.00,CLR,OVC,0.01,WeatherDisplay:10.37,2013-08-01 13:59:00,
2013-08-01 10:04:00,80.3,76.8,30.05,SE,140,3.4,3.4,89,0.00,CLR,OVC,0.01,WeatherDisplay:10.37,2013-08-01 14:04:00,
2013-08-01 10:09:00,80.6,77.1,30.04,SE,131,2.3,2.3,89,0.00,CLR,OVC,0.01,WeatherDisplay:10.37,2013-08-01 14:09:00,
2013-08-01 10:14:00,80.6,76.7,30.05,SSE,153,2.3,2.3,88,0.00,CLR,OVC,0.01,WeatherDisplay:10.37,2013-08-01 14:14:00,
2013-08-01 10:19:00,80.7,76.8,30.05,SSW,196,2.3,2.3,88,0.00,CLR,OVC,0.01,WeatherDisplay:10.37,2013-08-01 14:19:00,
2013-08-01 10:24:00,80.9,76.7,30.04,SE,145,3.4,3.4,87,0.00,CLR,OVC,0.01,WeatherDisplay:10.37,2013-08-01 14:24:00,
2013-08-01 10:29:00,81.3,77.1,30.05,SSE,149,2.3,2.3,87,0.00,CLR,OVC,0.01,WeatherDisplay:10.37,2013-08-01 14:29:00,
2013-08-01 10:34:00,81.4,76.8,30.05,East,82,4.6,4.6,86,0.00,CLR,OVC,0.01,WeatherDisplay:10.37,2013-08-01 14:34:00,
2013-08-01 10:39:00,81.4,76.5,30.05,East,96,3.0,3.0,85,0.00,CLR,OVC,0.01,WeatherDisplay:10.37,2013-08-01 14:39:00,
2013-08-01 10:44:00,81.5,76.6,30.05,South,177,3.4,3.4,85,0.00,CLR,OVC,0.01,WeatherDisplay:10.37,2013-08-01 14:44:00,
2013-08-01 10:49:00,81.8,76.8,30.05,SSW,195,2.3,2.3,85,0.00,CLR,OVC,0.01,WeatherDisplay:10.37,2013-08-01 14:49:00,
2013-08-01 10:54:00,82.1,76.8,30.05,SE,132,3.4,3.4,84,0.00,CLR,OVC,0.01,WeatherDisplay:10.37,2013-08-01 14:54:00,
2013-08-01 10:59:00,82.3,77.0,30.05,South,176,3.4,3.4,84,0.00,CLR,OVC,0.01,WeatherDisplay:10.37,2013-08-01 14:59:00,
2013-08-01 11:04:00,82.4,76.7,30.05,South,173,3.0,3.0,83,0.00,BKN,OVC,0.01,WeatherDisplay:10.37,2013-08-01 15:04:00,
2013-08-01 11:09:00,82.6,76.9,30.05,South,177,3.4,3.4,83,0.00,BKN,OVC,0.01,WeatherDisplay:10.37,2013-08-01 15:09:00,
2013-08-01 11:14:00,82.9,77.2,30.05,South,170,2.3,2.3,83,0.00,BKN,OVC,0.01,WeatherDisplay:10.37,2013-08-01 15:14:00,
2013-08-01 11:19:00,83.1,76.7,30.05,SW,224,3.4,3.4,81,0.00,BKN,OVC,0.01,WeatherDisplay:10.37,2013-08-01 15:19:00,
2013-08-01 11:24:00,83.2,76.4,30.05,WSW,254,3.4,3.4,80,0.00,BKN,OVC,0.01,WeatherDisplay:10.37,2013-08-01 15:24:00,
2013-08-01 11:30:00,83.2,76.0,30.05,South,177,2.3,2.3,79,0.00,BKN,OVC,0.01,WeatherDisplay:10.37,2013-08-01 15:30:00,
2013-08-01 11:35:00,83.5,75.9,30.05,South,187,4.6,4.6,78,0.00,BKN,OVC,0.01,WeatherDisplay:10.37,2013-08-01 15:35:00,
2013-08-01 11:40:00,83.7,76.5,30.05,WSW,253,3.4,3.4,79,0.00,BKN,OVC,0.01,WeatherDisplay:10.37,2013-08-01 15:40:00,
2013-08-01 11:45:00,83.9,76.3,30.05,SW,218,2.3,2.3,78,0.00,BKN,OVC,0.01,WeatherDisplay:10.37,2013-08-01 15:45:00,
2013-08-01 11:50:00,84.0,76.4,30.05,SSW,198,1.0,3.0,78,0.00,BKN,OVC,0.01,WeatherDisplay:10.37,2013-08-01 15:50:00,
2013-08-01 11:55:00,84.5,76.9,30.04,South,178,1.1,1.1,78,0.00,BKN,OVC,0.01,WeatherDisplay:10.37,2013-08-01 15:55:00,
2013-08-01 11:59:00,84.8,76.8,30.04,South,183,3.4,3.4,77,0.00,BKN,OVC,0.01,WeatherDisplay:10.37,2013-08-01 15:59:00,
2013-08-01 12:00:00,84.8,76.8,30.04,South,183,3.4,3.4,77,0.00,BKN,OVC,0.01,WeatherDisplay:10.37,2013-08-01 16:00:00,
2013-08-01 12:05:00,84.8,76.8,30.04,South,183,3.4,3.4,77,0.00,BKN,OVC,0.01,WeatherDisplay:10.37,2013-08-01 16:05:00,
2013-08-01 12:10:00,84.8,76.8,30.04,South,183,3.4,3.4,77,0.00,BKN,OVC,0.01,WeatherDisplay:10.37,2013-08-01 16:10:00,
2013-08-01 12:15:00,85.6,76.8,30.03,South,175,2.3,2.3,75,0.00,BKN,OVC,0.01,WeatherDisplay:10.37,2013-08-01 16:15:00,
2013-08-01 12:20:00,86.1,76.0,30.03,ENE,77,3.4,3.4,72,0.00,FEW,OVC,0.01,WeatherDisplay:10.37,2013-08-01 16:20:00,
2013-08-01 12:25:00,86.3,76.6,30.03,SSW,204,3.4,3.4,73,0.00,FEW,OVC,0.01,WeatherDisplay:10.37,2013-08-01 16:25:00,
2013-08-01 12:30:00,86.5,75.1,30.03,SSE,147,3.4,3.4,69,0.00,FEW,OVC,0.01,WeatherDisplay:10.37,2013-08-01 16:30:00,
2013-08-01 12:35:00,86.4,76.3,30.03,WSW,243,3.4,3.4,72,0.00,FEW,OVC,0.01,WeatherDisplay:10.37,2013-08-01 16:35:00,
2013-08-01 12:40:00,86.2,75.7,30.03,SSW,192,3.4,3.4,71,0.00,FEW,OVC,0.01,WeatherDisplay:10.37,2013-08-01 16:40:00,
2013-08-01 12:45:00,86.3,75.4,30.03,SSW,198,3.4,3.4,70,0.00,FEW,OVC,0.01,WeatherDisplay:10.37,2013-08-01 16:45:00,
2013-08-01 12:50:00,86.5,76.4,30.03,South,186,2.3,2.3,72,0.00,FEW,OVC,0.01,WeatherDisplay:10.37,2013-08-01 16:50:00,
2013-08-01 12:55:00,86.5,76.0,30.02,South,171,3.4,3.4,71,0.00,FEW,OVC,0.01,WeatherDisplay:10.37,2013-08-01 16:55:00,
2013-08-01 13:00:00,86.8,76.7,30.02,SSE,162,3.4,3.4,72,0.00,FEW,OVC,0.01,WeatherDisplay:10.37,2013-08-01 17:00:00,
2013-08-01 13:06:00,87.6,77.0,30.02,South,187,3.4,3.4,71,0.00,FEW,OVC,0.01,WeatherDisplay:10.37,2013-08-01 17:06:00,
2013-08-01 13:11:00,88.4,78.6,30.02,South,185,6.0,6.0,73,0.00,FEW,OVC,0.01,WeatherDisplay:10.37,2013-08-01 17:11:00,
2013-08-01 13:16:00,89.1,77.6,30.02,SE,145,4.0,4.0,69,0.00,FEW,OVC,0.01,WeatherDisplay:10.37,2013-08-01 17:16:00,
2013-08-01 13:21:00,89.3,76.9,30.02,SSE,155,3.4,3.4,67,0.00,FEW,OVC,0.01,WeatherDisplay:10.37,2013-08-01 17:21:00,
2013-08-01 13:26:00,89.7,77.7,30.02,ENE,69,4.6,4.6,68,0.00,FEW,OVC,0.01,WeatherDisplay:10.37,2013-08-01 17:26:00,
2013-08-01 13:31:00,90.2,78.2,30.01,East,100,4.0,4.0,68,0.00,FEW,OVC,0.01,WeatherDisplay:10.37,2013-08-01 17:31:00,
2013-08-01 13:36:00,90.1,78.6,30.01,SSE,167,3.4,3.4,69,0.00,FEW,OVC,0.01,WeatherDisplay:10.37,2013-08-01 17:36:00,
2013-08-01 13:41:00,89.8,77.4,30.01,SW,232,4.0,4.0,67,0.00,FEW,OVC,0.01,WeatherDisplay:10.37,2013-08-01 17:41:00,
2013-08-01 13:46:00,89.8,77.8,30.00,SSE,168,3.0,3.0,68,0.00,FEW,OVC,0.01,WeatherDisplay:10.37,2013-08-01 17:46:00,
2013-08-01 13:51:00,90.1,77.7,30.00,SSE,165,3.4,3.4,67,0.00,FEW,OVC,0.01,WeatherDisplay:10.37,2013-08-01 17:51:00,
2013-08-01 13:56:00,90.2,76.4,30.00,SE,145,5.0,5.0,64,0.00,FEW,OVC,0.01,WeatherDisplay:10.37,2013-08-01 17:56:00,
2013-08-01 14:01:00,90.3,76.5,30.00,South,175,3.4,3.4,64,0.00,CLR,OVC,0.01,WeatherDisplay:10.37,2013-08-01 18:01:00,
2013-08-01 14:06:00,90.2,75.4,30.00,SW,236,4.6,4.6,62,0.00,CLR,OVC,0.01,WeatherDisplay:10.37,2013-08-01 18:06:00,
2013-08-01 14:11:00,90.7,76.4,29.99,WSW,243,3.4,3.4,63,0.00,CLR,OVC,0.01,WeatherDisplay:10.37,2013-08-01 18:11:00,
2013-08-01 14:16:00,90.3,76.0,29.99,SW,222,8.1,8.1,63,0.00,CLR,OVC,0.01,WeatherDisplay:10.37,2013-08-01 18:16:00,
2013-08-01 14:21:00,90.6,76.3,29.99,South,185,3.4,3.4,63,0.00,CLR,OVC,0.01,WeatherDisplay:10.37,2013-08-01 18:21:00,
2013-08-01 14:26:00,91.0,77.1,29.99,SSW,211,5.8,5.8,64,0.00,CLR,OVC,0.01,WeatherDisplay:10.37,2013-08-01 18:26:00,
2013-08-01 14:31:00,91.1,77.7,29.99,SSE,167,3.4,3.4,65,0.00,CLR,OVC,0.01,WeatherDisplay:10.37,2013-08-01 18:31:00,
2013-08-01 14:36:00,91.2,76.4,29.99,SSW,207,3.4,3.4,62,0.00,CLR,OVC,0.01,WeatherDisplay:10.37,2013-08-01 18:36:00,
2013-08-01 14:41:00,90.9,75.6,29.99,West,265,9.2,9.2,61,0.00,CLR,OVC,0.01,WeatherDisplay:10.37,2013-08-01 18:41:00,
2013-08-01 14:47:00,91.0,77.6,29.99,NE,52,4.0,4.0,65,0.00,CLR,OVC,0.01,WeatherDisplay:10.37,2013-08-01 18:47:00,
2013-08-01 14:52:00,91.1,73.7,29.99,SSE,159,5.8,5.8,57,0.00,CLR,OVC,0.01,WeatherDisplay:10.37,2013-08-01 18:52:00,
2013-08-01 14:57:00,91.0,74.2,29.99,WSW,248,11.5,11.5,58,0.00,CLR,OVC,0.01,WeatherDisplay:10.37,2013-08-01 18:57:00,
2013-08-01 15:02:00,91.1,73.7,30.00,WSW,254,4.6,4.6,57,0.00,CLR,OVC,0.01,WeatherDisplay:10.37,2013-08-01 19:02:00,
2013-08-01 15:07:00,91.6,73.7,30.00,SW,227,6.9,6.9,56,0.00,CLR,OVC,0.01,WeatherDisplay:10.37,2013-08-01 19:07:00,
2013-08-01 15:12:00,91.1,73.7,30.00,SSW,194,3.4,3.4,57,0.00,CLR,OVC,0.01,WeatherDisplay:10.37,2013-08-01 19:12:00,
2013-08-01 15:17:00,90.9,73.6,30.00,SSE,167,3.4,3.4,57,0.00,CLR,OVC,0.01,WeatherDisplay:10.37,2013-08-01 19:17:00,
2013-08-01 15:22:00,90.6,73.8,30.00,WSW,250,7.0,7.0,58,0.00,CLR,OVC,0.01,WeatherDisplay:10.37,2013-08-01 19:22:00,
2013-08-01 15:27:00,90.4,75.1,30.00,SSW,204,6.9,6.9,61,0.00,CLR,OVC,0.01,WeatherDisplay:10.37,2013-08-01 19:27:00,
2013-08-01 15:32:00,90.3,73.5,29.99,SW,233,4.6,4.6,58,0.00,CLR,OVC,0.01,WeatherDisplay:10.37,2013-08-01 19:32:00,
2013-08-01 15:37:00,90.4,74.6,29.99,South,181,4.6,4.6,60,0.00,CLR,OVC,0.01,WeatherDisplay:10.37,2013-08-01 19:37:00,
2013-08-01 15:42:00,90.2,74.9,29.99,SW,222,3.4,3.4,61,0.00,CLR,OVC,0.01,WeatherDisplay:10.37,2013-08-01 19:42:00,
2013-08-01 15:47:00,89.9,74.6,29.99,WSW,246,3.4,3.4,61,0.00,CLR,OVC,0.01,WeatherDisplay:10.37,2013-08-01 19:47:00,
2013-08-01 15:52:00,89.5,74.8,29.98,SW,218,3.4,3.4,62,0.00,CLR,OVC,0.01,WeatherDisplay:10.37,2013-08-01 19:52:00,
2013-08-01 15:57:00,89.4,74.7,29.98,South,183,2.3,2.3,62,0.00,CLR,OVC,0.01,WeatherDisplay:10.37,2013-08-01 19:57:00,
2013-08-01 16:02:00,89.2,75.4,29.98,West,261,3.4,3.4,64,0.00,FEW,OVC,0.01,WeatherDisplay:10.37,2013-08-01 20:02:00,
2013-08-01 16:07:00,89.0,72.8,29.98,WNW,302,4.6,4.6,59,0.00,FEW,OVC,0.01,WeatherDisplay:10.37,2013-08-01 20:07:00,
2013-08-01 16:12:00,87.6,75.3,29.98,NNE,28,2.3,2.3,67,0.00,FEW,OVC,0.01,WeatherDisplay:10.37,2013-08-01 20:12:00,
2013-08-01 16:17:00,87.0,75.2,29.98,NNW,344,3.4,3.4,68,0.00,FEW,OVC,0.01,WeatherDisplay:10.37,2013-08-01 20:17:00,
2013-08-01 16:22:00,85.4,74.1,29.98,North,9,5.8,5.8,69,0.00,FEW,OVC,0.01,WeatherDisplay:10.37,2013-08-01 20:22:00,
2013-08-01 16:27:00,84.7,73.4,29.98,North,8,4.6,4.6,69,0.00,FEW,OVC,0.01,WeatherDisplay:10.37,2013-08-01 20:27:00,
2013-08-01 16:32:00,83.8,73.0,29.99,NNW,331,9.2,9.2,70,0.00,FEW,OVC,0.01,WeatherDisplay:10.37,2013-08-01 20:32:00,
2013-08-01 16:37:00,83.2,72.8,29.99,NNE,15,6.9,6.9,71,0.00,FEW,OVC,0.01,WeatherDisplay:10.37,2013-08-01 20:37:00,
2013-08-01 16:40:00,82.9,73.4,29.98,North,5,3.4,3.4,73,0.00,FEW,OVC,0.01,WeatherDisplay:10.37,2013-08-01 20:40:00,
2013-08-01 16:45:00,82.6,73.1,29.98,NW,306,3.4,3.7,73,0.00,FEW,OVC,0.01,WeatherDisplay:10.37,2013-08-01 20:45:00,
2013-08-01 16:50:00,82.3,73.2,29.98,NNW,341,5.8,5.8,74,0.00,FEW,OVC,0.01,WeatherDisplay:10.37,2013-08-01 20:50:00,
2013-08-01 16:55:00,82.3,73.6,29.98,NNE,18,1.1,1.1,75,0.00,FEW,OVC,0.01,WeatherDisplay:10.37,2013-08-01 20:55:00,
2013-08-01 17:00:00,82.5,73.4,29.97,North,1,3.4,3.4,74,0.00,FEW,OVC,0.01,WeatherDisplay:10.37,2013-08-01 21:00:00,
2013-08-01 17:05:00,82.5,73.8,29.98,SSE,149,3.4,3.4,75,0.00,CLR,OVC,0.01,WeatherDisplay:10.37,2013-08-01 21:05:00,
2013-08-01 17:10:00,82.4,74.1,29.98,North,357,3.4,3.4,76,0.00,CLR,OVC,0.01,WeatherDisplay:10.37,2013-08-01 21:10:00,
2013-08-01 17:14:00,82.2,73.5,29.98,NNE,13,5.8,5.8,75,0.00,CLR,OVC,0.01,WeatherDisplay:10.37,2013-08-01 21:14:00,
2013-08-01 17:15:00,82.2,73.5,29.98,NNE,13,5.8,5.8,75,0.00,CLR,OVC,0.01,WeatherDisplay:10.37,2013-08-01 21:15:00,
2013-08-01 17:20:00,82.2,73.5,29.98,NNE,13,5.8,5.8,75,0.00,CLR,OVC,0.01,WeatherDisplay:10.37,2013-08-01 21:20:00,
2013-08-01 17:30:00,82.2,73.5,29.99,NNW,348,3.4,3.4,75,0.00,CLR,OVC,0.01,WeatherDisplay:10.37,2013-08-01 21:30:00,
2013-08-01 17:35:00,82.3,73.6,29.99,North,351,4.0,4.0,75,0.00,CLR,OVC,0.01,WeatherDisplay:10.37,2013-08-01 21:35:00,
2013-08-01 17:40:00,82.3,73.6,29.99,North,3,2.3,2.3,75,0.00,CLR,OVC,0.01,WeatherDisplay:10.37,2013-08-01 21:40:00,
2013-08-01 17:45:00,82.5,74.2,30.01,ESE,122,3.4,3.4,76,0.00,CLR,OVC,0.01,WeatherDisplay:10.37,2013-08-01 21:45:00,
2013-08-01 17:50:00,82.1,73.8,30.01,SSE,155,5.8,5.8,76,0.00,CLR,OVC,0.01,WeatherDisplay:10.37,2013-08-01 21:50:00,
2013-08-01 17:55:00,81.5,73.2,30.01,SE,134,3.4,3.4,76,0.00,CLR,OVC,0.01,WeatherDisplay:10.37,2013-08-01 21:55:00,
2013-08-01 18:00:00,81.5,74.0,30.01,SSE,148,3.4,3.4,78,0.00,CLR,OVC,0.01,WeatherDisplay:10.37,2013-08-01 22:00:00,
2013-08-01 18:05:00,81.6,74.1,30.01,NNE,31,1.1,1.1,78,0.00,CLR,OVC,0.01,WeatherDisplay:10.37,2013-08-01 22:05:00,
2013-08-01 18:10:00,81.7,74.2,30.01,NE,54,2.3,2.3,78,0.00,CLR,OVC,0.01,WeatherDisplay:10.37,2013-08-01 22:10:00,
2013-08-01 18:15:00,81.7,74.2,30.01,East,97,1.1,1.1,78,0.00,CLR,OVC,0.01,WeatherDisplay:10.37,2013-08-01 22:15:00,
2013-08-01 18:20:00,81.8,74.3,30.01,East,81,1.1,1.1,78,0.00,CLR,OVC,0.01,WeatherDisplay:10.37,2013-08-01 22:20:00,
2013-08-01 18:25:00,82.1,74.9,30.01,NNW,329,2.3,2.3,79,0.00,CLR,OVC,0.01,WeatherDisplay:10.37,2013-08-01 22:25:00,
2013-08-01 18:30:00,82.3,75.1,30.01,SSE,151,3.4,3.4,79,0.00,CLR,OVC,0.01,WeatherDisplay:10.37,2013-08-01 22:30:00,
2013-08-01 18:35:00,82.4,75.2,30.01,ESE,107,2.3,2.3,79,0.00,CLR,OVC,0.01,WeatherDisplay:10.37,2013-08-01 22:35:00,
2013-08-01 18:40:00,82.1,75.3,30.01,ESE,114,1.1,1.1,80,0.00,CLR,OVC,0.01,WeatherDisplay:10.37,2013-08-01 22:40:00,
2013-08-01 18:45:00,82.0,75.2,30.02,ESE,120,1.1,1.1,80,0.00,CLR,OVC,0.01,WeatherDisplay:10.37,2013-08-01 22:45:00,
2013-08-01 18:50:00,81.7,74.9,30.02,ENE,71,2.3,2.3,80,0.00,CLR,OVC,0.01,WeatherDisplay:10.37,2013-08-01 22:50:00,
2013-08-01 18:55:00,81.4,75.0,30.01,ESE,120,2.3,2.3,81,0.00,CLR,OVC,0.01,WeatherDisplay:10.37,2013-08-01 22:55:00,
2013-08-01 19:00:00,81.1,74.3,30.01,NNW,339,3.4,3.4,80,0.00,CLR,OVC,0.01,WeatherDisplay:10.37,2013-08-01 23:00:00,
2013-08-01 19:05:00,80.5,74.1,30.01,ENE,59,3.4,3.4,81,0.00,BKN,OVC,0.01,WeatherDisplay:10.37,2013-08-01 23:05:00,
2013-08-01 19:10:00,80.1,74.1,30.01,ESE,116,1.1,1.1,82,0.00,BKN,OVC,0.01,WeatherDisplay:10.37,2013-08-01 23:10:00,
2013-08-01 19:15:00,79.8,73.8,30.01,East,80,2.3,0.0,82,0.00,BKN,OVC,0.01,WeatherDisplay:10.37,2013-08-01 23:15:00,
2013-08-01 19:20:00,79.7,74.1,30.01,ESE,107,2.0,2.0,83,0.00,BKN,OVC,0.01,WeatherDisplay:10.37,2013-08-01 23:20:00,
2013-08-01 19:25:00,79.5,73.9,30.01,ESE,114,1.1,1.1,83,0.00,BKN,OVC,0.01,WeatherDisplay:10.37,2013-08-01 23:25:00,
2013-08-01 19:30:00,79.4,73.4,30.01,ESE,122,4.0,4.0,82,0.00,BKN,OVC,0.01,WeatherDisplay:10.37,2013-08-01 23:30:00,
2013-08-01 19:35:00,79.1,73.1,30.01,ESE,104,2.3,2.3,82,0.00,BKN,OVC,0.01,WeatherDisplay:10.37,2013-08-01 23:35:00,
2013-08-01 19:40:00,78.9,73.3,30.01,East,97,1.1,1.1,83,0.00,BKN,OVC,0.01,WeatherDisplay:10.37,2013-08-01 23:40:00,
2013-08-01 19:45:00,78.6,73.0,30.01,ESE,108,1.1,1.1,83,0.00,BKN,OVC,0.01,WeatherDisplay:10.37,2013-08-01 23:45:00,
2013-08-01 19:50:00,78.5,73.3,30.01,ESE,120,1.1,1.1,84,0.00,BKN,OVC,0.01,WeatherDisplay:10.37,2013-08-01 23:50:00,
2013-08-01 19:55:00,78.4,73.2,30.00,SE,127,2.3,2.3,84,0.00,BKN,OVC,0.01,WeatherDisplay:10.37,2013-08-01 23:55:00,
2013-08-01 20:00:00,78.2,73.0,30.01,SE,127,1.1,1.1,84,0.00,BKN,OVC,0.01,WeatherDisplay:10.37,2013-08-02 00:00:00,
2013-08-01 20:05:00,78.1,72.9,30.01,ESE,117,2.3,2.3,84,0.00,FEW,OVC,0.01,WeatherDisplay:10.37,2013-08-02 00:05:00,
2013-08-01 20:10:00,78.0,72.8,30.01,SE,144,3.4,3.4,84,0.00,FEW,OVC,0.01,WeatherDisplay:10.37,2013-08-02 00:10:00,
2013-08-01 20:15:00,77.9,72.7,30.01,SE,137,3.4,3.4,84,0.00,FEW,OVC,0.01,WeatherDisplay:10.37,2013-08-02 00:15:00,
2013-08-01 20:20:00,77.7,72.8,30.01,SE,124,2.3,2.3,85,0.00,FEW,OVC,0.01,WeatherDisplay:10.37,2013-08-02 00:20:00,
2013-08-01 20:25:00,77.4,72.5,30.01,SSE,149,3.4,3.4,85,0.00,FEW,OVC,0.01,WeatherDisplay:10.37,2013-08-02 00:25:00,
2013-08-01 20:30:00,77.3,72.4,30.01,SE,142,3.4,3.4,85,0.00,FEW,OVC,0.01,WeatherDisplay:10.37,2013-08-02 00:30:00,
2013-08-01 20:35:00,77.2,72.3,30.00,SE,135,3.0,3.0,85,0.00,FEW,OVC,0.01,WeatherDisplay:10.37,2013-08-02 00:35:00,
2013-08-01 20:40:00,77.0,72.1,30.00,SE,141,3.4,3.4,85,0.00,FEW,OVC,0.01,WeatherDisplay:10.37,2013-08-02 00:40:00,
2013-08-01 20:45:00,76.9,72.0,30.00,SE,140,1.1,0.0,85,0.00,FEW,OVC,0.01,WeatherDisplay:10.37,2013-08-02 00:45:00,
2013-08-01 20:50:00,76.8,71.9,30.00,SSE,162,3.4,3.4,85,0.00,FEW,OVC,0.01,WeatherDisplay:10.37,2013-08-02 00:50:00,
2013-08-01 20:55:00,76.8,71.9,30.00,SE,135,2.3,2.3,85,0.00,FEW,OVC,0.01,WeatherDisplay:10.37,2013-08-02 00:55:00,
2013-08-01 21:00:00,76.8,71.9,30.00,SE,135,1.1,1.2,85,0.00,FEW,OVC,0.01,WeatherDisplay:10.37,2013-08-02 01:00:00,
2013-08-01 21:05:00,76.4,71.6,30.00,SE,127,1.1,0.0,85,0.00,CLR,OVC,0.01,WeatherDisplay:10.37,2013-08-02 01:05:00,
2013-08-01 21:11:00,76.3,71.8,30.00,SE,137,2.3,2.3,86,0.00,CLR,OVC,0.01,WeatherDisplay:10.37,2013-08-02 01:11:00,
2013-08-01 21:16:00,76.2,71.7,30.00,SE,135,2.3,2.3,86,0.00,CLR,OVC,0.01,WeatherDisplay:10.37,2013-08-02 01:16:00,
2013-08-01 21:21:00,76.1,71.9,30.00,SE,135,1.1,1.1,87,0.00,CLR,OVC,0.01,WeatherDisplay:10.37,2013-08-02 01:21:00,
2013-08-01 21:26:00,76.1,71.9,30.00,SE,140,1.1,1.1,87,0.00,CLR,OVC,0.01,WeatherDisplay:10.37,2013-08-02 01:26:00,
2013-08-01 21:31:00,76.1,71.9,30.00,SE,139,1.1,1.1,87,0.00,CLR,OVC,0.01,WeatherDisplay:10.37,2013-08-02 01:31:00,
2013-08-01 21:36:00,76.1,71.9,30.00,SE,140,1.1,0.0,87,0.00,CLR,OVC,0.01,WeatherDisplay:10.37,2013-08-02 01:36:00,
2013-08-01 21:41:00,76.1,71.9,30.00,SE,140,1.1,1.1,87,0.00,CLR,OVC,0.01,WeatherDisplay:10.37,2013-08-02 01:41:00,
2013-08-01 21:46:00,76.1,71.9,30.00,SE,140,1.1,0.0,87,0.00,CLR,OVC,0.01,WeatherDisplay:10.37,2013-08-02 01:46:00,
2013-08-01 21:51:00,76.0,71.8,30.00,SE,140,0.0,0.0,87,0.00,CLR,OVC,0.01,WeatherDisplay:10.37,2013-08-02 01:51:00,
2013-08-01 21:56:00,75.9,72.1,30.00,SE,139,0.0,0.0,88,0.00,CLR,OVC,0.01,WeatherDisplay:10.37,2013-08-02 01:56:00,
2013-08-01 22:01:00,75.8,72.0,30.00,SE,139,0.0,0.0,88,0.00,CLR,OVC,0.01,WeatherDisplay:10.37,2013-08-02 02:01:00,
2013-08-01 22:06:00,75.5,71.7,30.00,SE,140,0.0,0.0,88,0.00,CLR,OVC,0.01,WeatherDisplay:10.37,2013-08-02 02:06:00,
2013-08-01 22:11:00,75.5,71.7,30.01,SE,140,0.0,0.0,88,0.00,CLR,OVC,0.01,WeatherDisplay:10.37,2013-08-02 02:11:00,
2013-08-01 22:16:00,75.4,71.6,30.01,SE,140,0.0,0.0,88,0.00,CLR,OVC,0.01,WeatherDisplay:10.37,2013-08-02 02:16:00,
2013-08-01 22:21:00,75.4,71.9,30.01,SE,140,0.0,0.0,89,0.00,CLR,OVC,0.01,WeatherDisplay:10.37,2013-08-02 02:21:00,
2013-08-01 22:26:00,75.5,72.0,30.01,SE,140,1.1,0.0,89,0.00,CLR,OVC,0.01,WeatherDisplay:10.37,2013-08-02 02:26:00,
2013-08-01 22:29:00,75.4,71.9,30.01,SE,140,0.0,0.0,89,0.00,CLR,OVC,0.01,WeatherDisplay:10.37,2013-08-02 02:29:00,
2013-08-01 22:31:00,75.4,71.9,30.01,SE,140,0.0,0.0,89,0.00,CLR,OVC,0.01,WeatherDisplay:10.37,2013-08-02 02:31:00,
2013-08-01 22:36:00,75.4,71.9,30.01,SE,140,0.0,0.0,89,0.00,CLR,OVC,0.01,WeatherDisplay:10.37,2013-08-02 02:36:00,
2013-08-01 22:41:00,75.3,71.8,30.01,SE,139,0.0,0.0,89,0.00,CLR,OVC,0.01,WeatherDisplay:10.37,2013-08-02 02:41:00,
2013-08-01 22:46:00,75.3,71.8,30.01,SE,140,0.0,0.0,89,0.00,CLR,OVC,0.01,WeatherDisplay:10.37,2013-08-02 02:46:00,
2013-08-01 22:51:00,75.2,71.7,30.01,SE,140,0.0,0.0,89,0.00,CLR,OVC,0.01,WeatherDisplay:10.37,2013-08-02 02:51:00,
2013-08-01 22:56:00,75.1,71.6,30.01,SE,139,0.0,0.0,89,0.00,CLR,OVC,0.01,WeatherDisplay:10.37,2013-08-02 02:56:00,
2013-08-01 23:01:00,75.1,71.6,30.01,SE,139,1.1,0.0,89,0.00,CLR,OVC,0.01,WeatherDisplay:10.37,2013-08-02 03:01:00,
2013-08-01 23:06:00,75.1,71.6,30.01,SE,139,0.0,0.0,89,0.00,CLR,OVC,0.01,WeatherDisplay:10.37,2013-08-02 03:06:00,
2013-08-01 23:11:00,75.1,71.6,30.01,SE,140,1.1,0.0,89,0.00,CLR,OVC,0.01,WeatherDisplay:10.37,2013-08-02 03:11:00,
2013-08-01 23:16:00,75.2,71.7,30.01,SE,140,0.0,0.0,89,0.00,CLR,OVC,0.01,WeatherDisplay:10.37,2013-08-02 03:16:00,
2013-08-01 23:21:00,75.2,71.7,30.01,SE,140,0.0,0.0,89,0.00,CLR,OVC,0.01,WeatherDisplay:10.37,2013-08-02 03:21:00,
2013-08-01 23:26:00,75.1,71.6,30.01,SE,139,0.0,0.0,89,0.00,CLR,OVC,0.01,WeatherDisplay:10.37,2013-08-02 03:26:00,
2013-08-01 23:31:00,75.2,71.7,30.01,SE,139,0.0,0.0,89,0.00,CLR,OVC,0.01,WeatherDisplay:10.37,2013-08-02 03:31:00,
2013-08-01 23:36:00,75.3,71.8,30.01,SE,140,0.0,0.0,89,0.00,CLR,OVC,0.01,WeatherDisplay:10.37,2013-08-02 03:36:00,
2013-08-01 23:41:00,75.4,71.9,30.01,SE,139,0.0,0.0,89,0.00,CLR,OVC,0.01,WeatherDisplay:10.37,2013-08-02 03:41:00,
2013-08-01 23:46:00,75.4,71.9,30.01,SE,139,0.0,0.0,89,0.00,CLR,OVC,0.01,WeatherDisplay:10.37,2013-08-02 03:46:00,
2013-08-01 23:51:00,75.3,71.8,30.01,SE,140,0.0,0.0,89,0.00,CLR,OVC,0.01,WeatherDisplay:10.37,2013-08-02 03:51:00,
2013-08-01 23:56:00,75.3,71.8,30.01,SE,132,1.1,0.0,89,0.00,CLR,OVC,0.01,WeatherDisplay:10.37,2013-08-02 03:56:00,